Time;durP1;ratioP1;P1;durP2;ratioP2;P2;SDS_P1;SDS_P2;PMS_P1;PMS_P2;Temp;Humidity;BMP_temperature;BMP_pressure;BME280_temperature;BME280_humidity;BME280_pressure;Samples;Min_cycle;Max_cycle;Signal;HPM_P1;HPM_P2
2024/01/07 00:01:57;;;;;;;24.63;15.68;;;;;;;2.30;100.00;101591.75;5092575;28;20567;-59
2024/01/07 00:04:23;;;;;;;26.20;14.68;;;;;;;2.22;100.00;101589.25;5092473;28;20031;-59
2024/01/07 00:06:48;;;;;;;28.23;16.38;;;;;;;2.19;100.00;101586.66;5092232;28;20567;-59
2024/01/07 00:09:14;;;;;;;28.92;16.50;;;;;;;2.13;100.00;101588.53;5092501;28;20067;-59
2024/01/07 00:11:40;;;;;;;27.70;16.88;;;;;;;2.13;100.00;101604.28;5091497;28;20028;-59
2024/01/07 00:14:05;;;;;;;28.07;16.30;;;;;;;2.13;100.00;101604.28;5092202;28;20028;-59
2024/01/07 00:16:31;;;;;;;29.15;16.02;;;;;;;2.09;100.00;101610.44;5092047;28;20024;-59
2024/01/07 00:18:56;;;;;;;30.10;17.07;;;;;;;2.08;100.00;101612.22;5090757;28;20016;-59
2024/01/07 00:21:21;;;;;;;33.90;16.13;;;;;;;2.07;100.00;101615.72;5091899;28;20551;-59
2024/01/07 00:23:49;;;;;;;32.20;17.15;;;;;;;2.11;100.00;101620.03;5091919;28;20034;-59
2024/01/07 00:26:15;;;;;;;31.20;18.70;;;;;;;2.10;100.00;101618.31;5091483;28;20046;-59
2024/01/07 00:28:40;;;;;;;27.27;16.00;;;;;;;2.13;100.00;101607.75;5091970;28;20504;-59
2024/01/07 00:31:08;;;;;;;28.97;16.20;;;;;;;2.14;100.00;101611.25;5090676;28;20050;-59
2024/01/07 00:33:35;;;;;;;26.67;15.37;;;;;;;2.20;100.00;101617.25;5090913;28;20027;-59
2024/01/07 00:36:01;;;;;;;30.90;17.52;;;;;;;2.21;100.00;101613.75;5092361;28;20020;-59
2024/01/07 00:38:27;;;;;;;26.17;15.70;;;;;;;2.23;100.00;101619.84;5096475;28;20039;-59
2024/01/07 00:40:54;;;;;;;31.38;16.65;;;;;;;2.26;100.00;101621.53;5091554;28;20104;-59
2024/01/07 00:43:20;;;;;;;29.58;17.42;;;;;;;2.18;100.00;101615.56;5091703;28;20032;-59
2024/01/07 00:45:47;;;;;;;25.25;16.17;;;;;;;2.22;100.00;101619.88;5091824;28;20388;-59
2024/01/07 00:48:14;;;;;;;26.00;16.00;;;;;;;2.19;100.00;101633.91;5091482;28;20487;-59
2024/01/07 00:50:40;;;;;;;25.02;15.55;;;;;;;2.19;100.00;101622.53;5091843;28;20031;-59
2024/01/07 00:53:05;;;;;;;26.80;16.05;;;;;;;2.24;100.00;101625.97;5090549;28;20107;-59
2024/01/07 00:55:31;;;;;;;25.77;15.95;;;;;;;2.27;100.00;101628.56;5090750;28;20024;-59
2024/01/07 00:57:56;;;;;;;23.73;15.32;;;;;;;2.17;100.00;101626.94;5090139;28;20486;-59
2024/01/07 01:00:22;;;;;;;29.25;17.13;;;;;;;2.22;100.00;101636.47;5091858;28;20107;-59
2024/01/07 01:02:47;;;;;;;26.08;16.38;;;;;;;2.22;100.00;101636.47;5091655;28;20028;-59
2024/01/07 01:05:13;;;;;;;23.90;15.35;;;;;;;2.17;100.00;101638.31;5090292;28;20514;-59
2024/01/07 01:07:38;;;;;;;22.23;15.13;;;;;;;2.12;100.00;101647.13;5091741;28;20024;-59
2024/01/07 01:10:04;;;;;;;22.92;14.63;;;;;;;2.10;99.89;101646.31;5090678;28;20026;-59
2024/01/07 01:12:29;;;;;;;23.73;14.05;;;;;;;2.01;100.00;101639.44;5091205;28;20024;-59
2024/01/07 01:14:55;;;;;;;19.02;12.90;;;;;;;2.08;100.00;101651.56;5089416;28;20059;-59
2024/01/07 01:17:20;;;;;;;21.42;13.45;;;;;;;2.10;100.00;101652.41;5091033;28;20023;-59
2024/01/07 01:19:46;;;;;;;20.67;13.63;;;;;;;2.11;100.00;101658.53;5089290;28;20034;-59
2024/01/07 01:22:11;;;;;;;21.30;13.65;;;;;;;2.15;100.00;101658.47;5089986;28;20041;-59
2024/01/07 01:24:37;;;;;;;21.63;13.93;;;;;;;2.17;100.00;101656.66;5089034;28;20486;-59
2024/01/07 01:27:02;;;;;;;20.23;13.23;;;;;;;2.19;100.00;101660.16;5091141;28;20023;-59
2024/01/07 01:29:27;;;;;;;22.35;14.07;;;;;;;2.18;100.00;101658.44;5090614;28;20036;-59
2024/01/07 01:31:53;;;;;;;20.73;14.10;;;;;;;2.14;100.00;101661.97;5090856;28;20026;-59
2024/01/07 01:34:18;;;;;;;24.45;14.48;;;;;;;2.16;100.00;101662.81;5090488;28;20032;-59
2024/01/07 01:36:44;;;;;;;23.90;14.38;;;;;;;2.15;100.00;101668.09;5090987;28;20028;-59
2024/01/07 01:39:09;;;;;;;24.27;15.40;;;;;;;2.11;100.00;101669.88;5090574;28;20016;-59
2024/01/07 01:41:34;;;;;;;23.33;14.65;;;;;;;2.10;100.00;101672.56;5089363;28;20059;-59
2024/01/07 01:44:00;;;;;;;27.25;15.57;;;;;;;2.09;100.00;101676.94;5090943;28;20028;-59
2024/01/07 01:46:28;;;;;;;24.42;15.32;;;;;;;2.07;100.00;101681.31;5089514;28;20479;-59
2024/01/07 01:48:54;;;;;;;26.10;15.65;;;;;;;2.01;100.00;101668.31;5089365;28;20027;-59
2024/01/07 01:51:20;;;;;;;24.92;15.52;;;;;;;2.00;100.00;101680.56;5091041;28;20028;-59
2024/01/07 01:53:47;;;;;;;27.63;17.25;;;;;;;2.03;100.00;101688.38;5090109;28;20039;-59
2024/01/07 01:56:13;;;;;;;27.33;15.75;;;;;;;2.04;100.00;101684.84;5089067;28;20082;-59
2024/01/07 01:58:39;;;;;;;28.55;16.45;;;;;;;2.07;100.00;101689.19;5091090;28;20020;-59
2024/01/07 02:01:04;;;;;;;30.00;17.35;;;;;;;2.10;100.00;101690.91;5090653;28;20030;-59
2024/01/07 02:03:30;;;;;;;31.52;17.63;;;;;;;2.11;100.00;101690.88;5089174;28;20099;-59
2024/01/07 02:05:57;;;;;;;26.60;15.95;;;;;;;2.09;100.00;101689.16;5090516;28;20608;-59
2024/01/07 02:08:24;;;;;;;30.15;16.08;;;;;;;2.01;100.00;101681.41;5090255;28;20035;-59
2024/01/07 02:10:50;;;;;;;28.35;17.02;;;;;;;2.11;100.00;101693.50;5090096;28;20077;-59
2024/01/07 02:13:15;;;;;;;28.20;17.17;;;;;;;2.13;100.00;101696.97;5090301;28;20027;-59
2024/01/07 02:15:40;;;;;;;23.95;15.75;;;;;;;2.13;100.00;101706.63;5089496;28;20020;-59
2024/01/07 02:18:06;;;;;;;29.48;17.45;;;;;;;2.14;100.00;101698.69;5092850;28;20019;-59
2024/01/07 02:20:31;;;;;;;27.30;17.08;;;;;;;2.17;100.00;101700.41;5098582;28;20110;-59
2024/01/07 02:22:59;;;;;;;31.83;18.58;;;;;;;2.15;100.00;101699.59;5094169;28;20058;-59
2024/01/07 02:25:25;;;;;;;31.35;17.27;;;;;;;2.15;100.00;101694.34;5093805;28;20028;-59
2024/01/07 02:27:50;;;;;;;32.05;17.13;;;;;;;2.13;100.00;101702.22;5094460;28;20061;-59
2024/01/07 02:30:15;;;;;;;29.77;17.42;;;;;;;2.12;100.00;101702.22;5094050;28;20510;-59
2024/01/07 02:32:41;;;;;;;33.47;17.23;;;;;;;1.98;100.00;101689.34;5093203;28;20030;-59
2024/01/07 02:35:07;;;;;;;33.45;16.90;;;;;;;1.98;100.00;101689.34;5095653;28;20027;-59
2024/01/07 02:37:33;;;;;;;30.80;17.15;;;;;;;1.99;100.00;101694.53;5093949;28;20475;-59
2024/01/07 02:39:58;;;;;;;30.23;17.63;;;;;;;2.08;100.00;101709.28;5093909;28;20085;-59
2024/01/07 02:42:24;;;;;;;33.63;17.52;;;;;;;2.07;100.00;101706.69;5092825;28;20467;-59
2024/01/07 02:44:49;;;;;;;29.27;17.13;;;;;;;2.07;100.00;101707.56;5091688;28;20020;-59
2024/01/07 02:47:14;;;;;;;27.57;16.47;;;;;;;2.10;100.00;101712.78;5093579;28;20391;-59
2024/01/07 02:49:40;;;;;;;32.57;16.93;;;;;;;2.06;100.00;101713.72;5075634;28;20032;-59
2024/01/07 02:52:05;;;;;;;31.95;18.02;;;;;;;1.93;100.00;101704.25;5093938;28;20028;-59
2024/01/07 02:54:30;;;;;;;30.13;17.17;;;;;;;2.01;100.00;101718.16;5093514;28;20796;-59
2024/01/07 02:56:56;;;;;;;31.83;16.90;;;;;;;1.93;100.00;101705.13;5094147;28;20027;-59
2024/01/07 02:59:23;;;;;;;37.33;20.00;;;;;;;1.99;100.00;101719.91;5093705;28;20546;-59
2024/01/07 03:01:49;;;;;;;32.60;18.93;;;;;;;1.90;100.00;101720.03;5093680;28;20023;-59
2024/01/07 03:04:15;;;;;;;41.07;19.93;;;;;;;1.95;100.00;101724.34;5093213;28;20031;-59
2024/01/07 03:06:43;;;;;;;34.53;19.03;;;;;;;1.88;100.00;101724.44;5093563;28;20020;-59
2024/01/07 03:09:10;;;;;;;41.63;20.20;;;;;;;1.81;100.00;101721.88;5101483;28;20033;-59
2024/01/07 03:11:40;;;;;;;37.88;19.33;;;;;;;1.83;100.00;101728.88;5093071;28;20463;-59
2024/01/07 03:14:05;;;;;;;;;;;;;;;1.90;100.00;101736.63;5091964;28;20034;-59
2024/01/07 03:16:30;;;;;;;43.90;20.33;;;;;;;1.89;100.00;101736.69;5091734;28;20569;-59
2024/01/07 03:18:56;;;;;;;44.53;22.10;;;;;;;1.93;100.00;101744.47;5091865;28;20016;-59
2024/01/07 03:21:23;;;;;;;53.60;21.53;;;;;;;1.88;100.00;101729.66;5092899;28;20027;-59
2024/01/07 03:23:50;;;;;;;42.03;21.93;;;;;;;1.93;100.00;101739.22;5093307;28;20024;-59
2024/01/07 03:26:16;;;;;;;43.50;22.40;;;;;;;1.90;100.00;101733.16;5091358;28;20501;-59
2024/01/07 03:28:42;;;;;;;50.93;23.20;;;;;;;1.97;100.00;101742.66;5092340;28;20103;-59
2024/01/07 03:31:15;;;;;;;44.38;21.23;;;;;;;1.92;100.00;101729.63;5092956;28;20128;-59
2024/01/07 03:33:42;;;;;;;45.70;24.40;;;;;;;1.98;100.00;101750.53;5093398;28;20394;-59
2024/01/07 03:36:09;;;;;;;49.40;22.40;;;;;;;1.99;100.00;101751.41;5092142;28;20024;-59
2024/01/07 03:38:35;;;;;;;46.07;21.77;;;;;;;1.93;100.00;101744.47;5091776;28;20111;-59
2024/01/07 03:41:01;;;;;;;51.17;23.30;;;;;;;1.91;100.00;101748.00;5092662;28;20324;-59
2024/01/07 03:43:26;;;;;;;52.73;23.83;;;;;;;1.93;100.00;101751.47;5092896;28;20048;-59
2024/01/07 03:45:52;;;;;;;42.95;22.58;;;;;;;1.90;100.00;101755.00;5100122;28;20020;-59
2024/01/07 03:48:17;;;;;;;45.97;22.60;;;;;;;1.88;100.00;101743.66;5092617;28;20028;-59
2024/01/07 03:50:43;;;;;;;48.70;23.00;;;;;;;1.89;100.00;101760.28;5092923;28;20016;-59
2024/01/07 03:53:09;;;;;;;46.23;22.90;;;;;;;1.83;100.00;101744.63;5093085;28;20028;-59
2024/01/07 03:55:34;;;;;;;45.60;23.27;;;;;;;1.91;100.00;101755.88;5090962;28;20024;-59
2024/01/07 03:57:59;;;;;;;42.67;22.30;;;;;;;1.92;100.00;101766.34;5091510;28;20020;-59
2024/01/07 04:00:25;;;;;;;34.63;19.20;;;;;;;1.92;100.00;101768.13;5092702;28;20053;-59
2024/01/07 04:02:50;;;;;;;39.83;20.40;;;;;;;1.91;100.00;101768.97;5092618;28;20099;-59
2024/01/07 04:05:16;;;;;;;36.43;19.93;;;;;;;1.92;100.00;101771.59;5092368;28;20028;-59
2024/01/07 04:07:41;;;;;;;38.83;20.40;;;;;;;1.95;100.00;101774.19;5091167;28;20380;-59
2024/01/07 04:10:07;;;;;;;36.07;20.80;;;;;;;1.91;100.00;101774.22;5092045;28;20081;-59
2024/01/07 04:12:32;;;;;;;34.70;17.83;;;;;;;1.87;100.00;101778.66;5092375;28;20048;-59
2024/01/07 04:14:58;;;;;;;34.20;19.30;;;;;;;1.86;100.00;101782.16;5092129;28;20024;-59
2024/01/07 04:17:24;;;;;;;37.83;20.00;;;;;;;1.74;100.00;101761.34;5091938;28;20020;-59
2024/01/07 04:19:49;;;;;;;36.37;19.50;;;;;;;1.86;100.00;101778.69;5092258;28;20431;-59
2024/01/07 04:22:15;;;;;;;37.03;18.53;;;;;;;1.88;100.00;101780.38;5090855;28;20107;-59
2024/01/07 04:24:41;;;;;;;29.00;18.07;;;;;;;1.88;100.00;101782.13;5090381;28;20032;-59
2024/01/07 04:27:07;;;;;;;35.77;19.60;;;;;;;1.89;100.00;101792.63;5092251;28;20062;-59
2024/01/07 04:29:32;;;;;;;35.13;18.57;;;;;;;1.87;100.00;101793.53;5091567;28;20066;-59
2024/01/07 04:31:57;;;;;;;28.17;17.23;;;;;;;1.85;100.00;101801.38;5092124;28;20649;-59
2024/01/07 04:34:24;;;;;;;30.77;17.13;;;;;;;1.86;100.00;101803.16;5091935;28;20016;-59
2024/01/07 04:36:49;;;;;;;32.50;18.33;;;;;;;1.89;100.00;101802.25;5089553;28;20077;-59
2024/01/07 04:39:15;;;;;;;34.07;18.77;;;;;;;1.86;100.00;101807.53;5091952;28;20028;-59
2024/01/07 04:41:40;;;;;;;32.47;18.00;;;;;;;1.83;100.00;101808.44;5091631;28;20012;-59
2024/01/07 04:44:08;;;;;;;34.73;19.80;;;;;;;1.76;100.00;101809.38;5091931;28;20466;-59
2024/01/07 04:46:36;;;;;;;34.73;17.30;;;;;;;1.69;100.00;101810.34;5090183;28;20027;-59
2024/01/07 04:49:02;;;;;;;33.17;17.80;;;;;;;1.66;100.00;101816.47;5091653;28;20024;-59
2024/01/07 04:51:27;;;;;;;33.13;18.53;;;;;;;1.65;100.00;101816.47;5091608;28;20386;-59
2024/01/07 04:53:52;;;;;;;38.03;18.17;;;;;;;1.62;100.00;101814.78;5090495;28;20114;-59
2024/01/07 04:56:18;;;;;;;29.27;16.17;;;;;;;1.66;100.00;101819.09;5090752;28;20049;-59
2024/01/07 04:58:46;;;;;;;32.60;17.77;;;;;;;1.62;100.00;101811.25;5091718;28;20026;-59
2024/01/07 05:01:11;;;;;;;28.40;16.77;;;;;;;1.72;100.00;101826.03;5090315;28;20073;-59
2024/01/07 05:03:37;;;;;;;34.77;18.00;;;;;;;1.66;100.00;101820.84;5091728;28;20020;-59
2024/01/07 05:06:04;;;;;;;32.80;18.03;;;;;;;1.72;100.00;101828.66;5089702;28;20030;-59
2024/01/07 05:08:29;;;;;;;31.77;16.83;;;;;;;1.74;100.00;101829.50;5089830;28;20095;-59
2024/01/07 05:10:55;;;;;;;29.73;16.40;;;;;;;1.73;100.00;101831.25;5090608;28;20030;-59
2024/01/07 05:13:20;;;;;;;30.33;16.97;;;;;;;1.75;100.00;101844.34;5091295;28;20110;-59
2024/01/07 05:15:53;;;;;;;28.60;16.77;;;;;;;1.77;100.00;101835.59;5090784;28;20065;-59
2024/01/07 05:18:20;;;;;;;26.17;15.33;;;;;;;1.77;100.00;101830.34;5091013;28;20019;-59
2024/01/07 05:20:46;;;;;;;31.50;15.97;;;;;;;1.81;100.00;101837.28;5072929;28;20020;-59
2024/01/07 05:23:11;;;;;;;27.57;15.80;;;;;;;1.86;100.00;101837.25;5090068;28;20034;-59
2024/01/07 05:25:36;;;;;;;25.98;14.60;;;;;;;1.74;100.00;101830.38;5091035;28;20024;-59
2024/01/07 05:28:02;;;;;;;23.30;13.63;;;;;;;1.73;100.00;101828.63;5091063;28;20612;-59
2024/01/07 05:30:27;;;;;;;22.53;12.93;;;;;;;1.86;100.00;101847.75;5089328;28;20248;-59
2024/01/07 05:32:53;;;;;;;22.07;13.63;;;;;;;1.83;100.00;101852.16;5090855;28;20542;-59
2024/01/07 05:35:18;;;;;;;18.53;12.00;;;;;;;1.81;100.00;101855.63;5089563;28;20039;-59
2024/01/07 05:37:44;;;;;;;20.60;12.93;;;;;;;1.77;100.00;101864.44;5090981;28;20027;-59
2024/01/07 05:40:10;;;;;;;22.13;13.07;;;;;;;1.77;100.00;101867.06;5090529;28;20089;-59
2024/01/07 05:42:35;;;;;;;20.50;12.90;;;;;;;1.69;100.00;101858.41;5089286;28;20032;-59
2024/01/07 05:45:02;;;;;;;19.07;12.60;;;;;;;1.73;100.00;101870.56;5090556;28;20118;-59
2024/01/07 05:47:28;;;;;;;19.07;12.07;;;;;;;1.76;100.00;101890.66;5090816;28;20486;-59
2024/01/07 05:49:53;;;;;;;19.05;12.35;;;;;;;1.72;100.00;101875.84;5091055;28;20062;-59
2024/01/07 05:52:18;;;;;;;18.75;11.63;;;;;;;1.77;100.00;101884.56;5090017;28;20059;-59
2024/01/07 05:54:44;;;;;;;18.43;12.53;;;;;;;1.72;100.00;101878.47;5090178;28;20028;-59
2024/01/07 05:57:12;;;;;;;17.83;12.15;;;;;;;1.78;100.00;101886.28;5091165;28;20116;-59
2024/01/07 05:59:37;;;;;;;16.33;11.65;;;;;;;1.57;100.00;101854.13;5089388;28;20020;-59
2024/01/07 06:02:03;;;;;;;16.48;12.65;;;;;;;1.78;100.00;101888.91;5090354;28;20379;-59
2024/01/07 06:04:28;;;;;;;18.50;12.40;;;;;;;1.72;100.00;101897.69;5090422;28;20028;-59
2024/01/07 06:06:54;;;;;;;14.97;11.00;;;;;;;1.74;100.00;101895.94;5087003;28;20049;-59
2024/01/07 06:09:19;;;;;;;17.13;12.10;;;;;;;1.75;100.00;101904.66;5090223;28;20490;-59
2024/01/07 06:11:44;;;;;;;18.97;12.43;;;;;;;1.73;100.00;101909.91;5090978;28;20457;-59
2024/01/07 06:14:10;;;;;;;17.73;11.57;;;;;;;1.65;100.00;101910.88;5089252;28;20020;-59
2024/01/07 06:16:35;;;;;;;16.53;11.77;;;;;;;1.62;100.00;101916.13;5090102;28;20418;-59
2024/01/07 06:19:00;;;;;;;22.20;12.47;;;;;;;1.55;100.00;101924.06;5090394;28;20062;-59
2024/01/07 06:21:26;;;;;;;15.47;10.80;;;;;;;1.52;100.00;101920.59;5090419;28;20503;-59
2024/01/07 06:23:52;;;;;;;15.70;10.70;;;;;;;1.53;99.49;101924.94;5089142;28;20027;-60
2024/01/07 06:26:17;;;;;;;13.53;10.33;;;;;;;1.54;99.02;101926.72;5089787;28;20444;-59
2024/01/07 06:28:42;;;;;;;15.10;11.40;;;;;;;1.53;99.40;101925.84;5090170;28;20443;-59
2024/01/07 06:31:08;;;;;;;15.10;10.50;;;;;;;1.53;98.46;101938.06;5089051;28;20052;-59
2024/01/07 06:33:33;;;;;;;15.93;10.70;;;;;;;1.51;97.93;101938.09;5090359;28;20016;-59
2024/01/07 06:36:00;;;;;;;14.67;9.67;;;;;;;1.52;97.98;101947.69;5089267;28;20471;-59
2024/01/07 06:38:25;;;;;;;15.57;10.93;;;;;;;1.54;98.23;101951.16;5090157;28;20027;-59
2024/01/07 06:40:51;;;;;;;16.17;11.60;;;;;;;1.55;98.31;101952.91;5088166;28;20026;-59
2024/01/07 06:43:16;;;;;;;14.03;10.17;;;;;;;1.45;97.26;101940.75;5089868;28;20125;-59
2024/01/07 06:45:43;;;;;;;18.20;12.50;;;;;;;1.45;97.47;101951.25;5090316;28;20028;-59
2024/01/07 06:48:08;;;;;;;18.27;11.70;;;;;;;1.45;98.91;101951.25;5096793;28;20032;-59
2024/01/07 06:50:34;;;;;;;14.63;10.77;;;;;;;1.57;98.66;101966.88;5090156;28;20020;-59
2024/01/07 06:53:00;;;;;;;15.10;10.97;;;;;;;1.62;98.94;101969.47;5089851;28;20077;-59
2024/01/07 06:55:27;;;;;;;16.97;12.23;;;;;;;1.61;99.64;101966.84;5088365;28;20035;-59
2024/01/07 06:57:53;;;;;;;16.10;11.10;;;;;;;1.57;98.83;101964.25;5090170;28;20024;-59
2024/01/07 07:00:18;;;;;;;14.70;10.63;;;;;;;1.66;99.00;101986.03;5089839;28;20103;-59
2024/01/07 07:02:44;;;;;;;21.73;14.07;;;;;;;1.66;100.00;101972.94;5086006;28;20023;-59
2024/01/07 07:05:09;;;;;;;19.57;13.07;;;;;;;1.68;100.00;101979.03;5093247;28;20032;-59
2024/01/07 07:07:35;;;;;;;21.90;14.77;;;;;;;1.59;100.00;101966.88;5092130;28;20027;-59
2024/01/07 07:10:00;;;;;;;22.70;13.83;;;;;;;1.66;100.00;101986.91;5092940;28;20050;-59
2024/01/07 07:12:25;;;;;;;20.73;14.70;;;;;;;1.62;100.00;101981.69;5093275;28;20024;-59
2024/01/07 07:14:51;;;;;;;22.70;14.90;;;;;;;1.66;100.00;101996.53;5093260;28;20406;-59
2024/01/07 07:17:16;;;;;;;26.77;15.67;;;;;;;1.67;100.00;101995.63;5093598;28;20074;-59
2024/01/07 07:19:42;;;;;;;24.17;15.70;;;;;;;1.63;100.00;101992.19;5093265;28;20020;-60
2024/01/07 07:22:07;;;;;;;23.53;15.00;;;;;;;1.58;100.00;101996.56;5093462;28;20016;-59
2024/01/07 07:24:33;;;;;;;21.67;15.00;;;;;;;1.57;100.00;102008.81;5092680;28;20136;-59
2024/01/07 07:26:58;;;;;;;26.37;15.80;;;;;;;1.57;100.00;102003.56;5091793;28;20027;-59
2024/01/07 07:29:24;;;;;;;22.83;15.43;;;;;;;1.53;100.00;102004.50;5093035;28;20016;-59
2024/01/07 07:31:49;;;;;;;24.90;14.77;;;;;;;1.48;100.00;102008.03;5093424;28;20384;-59
2024/01/07 07:34:15;;;;;;;27.97;15.40;;;;;;;1.48;100.00;102010.66;5093396;28;20024;-59
2024/01/07 07:36:41;;;;;;;24.80;15.63;;;;;;;1.48;100.00;102016.75;5093058;28;20054;-59
2024/01/07 07:39:07;;;;;;;22.83;13.63;;;;;;;1.53;100.00;102027.19;5090628;28;20031;-59
2024/01/07 07:41:32;;;;;;;18.83;12.67;;;;;;;1.52;100.00;102031.56;5092612;28;20031;-59
2024/01/07 07:43:58;;;;;;;20.70;12.83;;;;;;;1.46;99.41;102022.88;5093002;28;20030;-59
2024/01/07 07:46:23;;;;;;;16.97;11.50;;;;;;;1.50;98.23;102042.94;5092875;28;20032;-59
2024/01/07 07:48:51;;;;;;;15.50;12.30;;;;;;;1.42;98.13;102042.13;5091752;28;20024;-59
2024/01/07 07:51:16;;;;;;;18.50;11.77;;;;;;;1.47;97.90;102056.06;5092742;28;20119;-59
2024/01/07 07:53:42;;;;;;;17.83;11.50;;;;;;;1.41;97.34;102067.47;5092496;28;20169;-59
2024/01/07 07:56:08;;;;;;;16.27;12.40;;;;;;;1.38;97.50;102079.72;5092474;28;20028;-59
2024/01/07 07:58:34;;;;;;;19.03;11.97;;;;;;;1.34;97.08;102081.47;5088517;28;20027;-59
2024/01/07 08:00:59;;;;;;;15.80;11.37;;;;;;;1.33;96.96;102080.63;5092569;28;20028;-59
2024/01/07 08:03:24;;;;;;;17.23;12.50;;;;;;;1.30;96.10;102079.78;5092509;28;20095;-59
2024/01/07 08:05:50;;;;;;;18.60;12.70;;;;;;;1.24;95.43;102087.66;5092448;28;20510;-59
2024/01/07 08:08:16;;;;;;;17.65;11.38;;;;;;;1.15;95.86;102080.72;5090295;28;20056;-59
2024/01/07 08:10:43;;;;;;;23.00;12.03;;;;;;;1.16;96.02;102081.56;5088406;28;20016;-59
2024/01/07 08:13:08;;;;;;;19.87;12.67;;;;;;;1.09;96.65;102081.59;5089647;28;20028;-59
2024/01/07 08:15:35;;;;;;;17.67;11.40;;;;;;;1.09;96.56;102086.84;5091324;28;20502;-59
2024/01/07 08:18:03;;;;;;;17.33;11.20;;;;;;;1.11;97.00;102098.16;5092913;28;20173;-59
2024/01/07 08:20:29;;;;;;;14.47;11.20;;;;;;;1.12;96.74;102099.94;5092266;28;20032;-59
2024/01/07 08:22:54;;;;;;;18.20;12.00;;;;;;;1.05;96.33;102089.47;5091272;28;20038;-59
2024/01/07 08:25:20;;;;;;;20.33;11.57;;;;;;;1.11;96.86;102099.91;5090812;28;20443;-59
2024/01/07 08:27:45;;;;;;;19.87;12.27;;;;;;;0.99;96.96;102081.63;5090082;28;20055;-59
2024/01/07 08:30:13;;;;;;;19.40;12.30;;;;;;;1.16;97.57;102110.41;5090024;28;20047;-60
2024/01/07 08:32:39;;;;;;;20.00;12.07;;;;;;;1.08;97.72;102084.22;5091673;28;20038;-59
2024/01/07 08:35:04;;;;;;;17.40;11.80;;;;;;;1.19;97.60;102113.00;5089533;28;20028;-59
2024/01/07 08:37:30;;;;;;;21.67;12.20;;;;;;;1.19;96.84;102118.25;5088436;28;20024;-59
2024/01/07 08:39:55;;;;;;;18.27;11.80;;;;;;;1.17;97.07;102122.59;5088532;28;20098;-59
2024/01/07 08:42:21;;;;;;;14.63;10.70;;;;;;;1.18;97.82;102119.09;5081101;28;20062;-59
2024/01/07 08:44:47;;;;;;;20.57;11.37;;;;;;;1.19;97.53;102133.97;5088430;28;20031;-59
2024/01/07 08:47:13;;;;;;;18.03;11.33;;;;;;;1.12;97.10;102125.25;5088357;28;20309;-59
2024/01/07 08:49:38;;;;;;;18.57;12.23;;;;;;;1.13;96.19;102124.38;5086386;28;20085;-59
2024/01/07 08:52:06;;;;;;;17.77;10.83;;;;;;;1.11;96.50;102133.97;5090002;28;20048;-59
2024/01/07 08:54:33;;;;;;;15.63;11.70;;;;;;;1.13;96.77;102142.72;5089643;28;20023;-59
2024/01/07 08:56:58;;;;;;;16.47;11.20;;;;;;;1.10;96.31;102134.88;5090133;28;20494;-59
2024/01/07 08:59:24;;;;;;;16.23;10.87;;;;;;;1.14;95.88;102142.69;5072108;28;20058;-59
2024/01/07 09:01:51;;;;;;;15.40;11.63;;;;;;;1.18;96.47;102145.31;5090236;28;20024;-59
2024/01/07 09:04:17;;;;;;;17.10;11.80;;;;;;;1.00;96.28;102126.19;5090326;28;20425;-59
2024/01/07 09:06:44;;;;;;;20.17;11.87;;;;;;;1.21;96.20;102163.66;5088910;28;20012;-59
2024/01/07 09:09:09;;;;;;;14.07;11.20;;;;;;;1.20;96.09;102157.53;5091403;28;20069;-59
2024/01/07 09:11:36;;;;;;;16.43;11.83;;;;;;;1.29;96.55;102160.13;5090218;28;20027;-59
2024/01/07 09:14:01;;;;;;;22.50;13.27;;;;;;;1.28;95.55;102160.13;5089588;28;20491;-59
2024/01/07 09:16:27;;;;;;;15.27;11.23;;;;;;;1.23;94.45;102169.75;5090228;28;20016;-59
2024/01/07 09:18:52;;;;;;;13.40;10.57;;;;;;;1.09;94.23;102159.34;5089031;28;20023;-59
2024/01/07 09:21:18;;;;;;;12.77;10.30;;;;;;;1.09;94.01;102178.53;5088540;28;20032;-59
2024/01/07 09:23:44;;;;;;;14.47;9.93;;;;;;;1.05;94.01;102181.16;5090661;28;20027;-59
2024/01/07 09:26:10;;;;;;;15.00;10.30;;;;;;;1.00;93.45;102196.00;5089232;28;20077;-59
2024/01/07 09:28:35;;;;;;;16.70;10.93;;;;;;;0.89;93.96;102175.94;5090109;28;20063;-59
2024/01/07 09:31:00;;;;;;;22.23;11.90;;;;;;;0.93;93.68;102179.44;5090512;28;20101;-59
2024/01/07 09:33:26;;;;;;;17.47;10.60;;;;;;;0.98;94.62;102197.78;5090321;28;20061;-59
2024/01/07 09:35:51;;;;;;;12.90;10.73;;;;;;;1.02;94.46;102202.13;5088661;28;20032;-59
2024/01/07 09:38:17;;;;;;;13.97;10.33;;;;;;;1.01;94.98;102190.78;5090368;28;20020;-59
2024/01/07 09:40:42;;;;;;;14.03;9.87;;;;;;;1.02;94.59;102205.59;5089061;28;20027;-59
2024/01/07 09:43:08;;;;;;;13.17;10.37;;;;;;;1.03;95.06;102202.13;5087823;28;20023;-59
2024/01/07 09:45:38;;;;;;;12.23;9.20;;;;;;;1.04;93.97;102209.09;5090044;28;20052;-58
2024/01/07 09:48:06;;;;;;;12.43;9.87;;;;;;;1.04;93.37;102218.72;5090581;28;20028;-59
2024/01/07 09:50:32;;;;;;;13.03;9.50;;;;;;;1.04;94.13;102216.09;5090959;28;20063;-59
2024/01/07 09:53:00;;;;;;;17.10;9.70;;;;;;;1.08;94.13;102223.06;5091301;28;20055;-59
2024/01/07 09:55:37;;;;;;;11.60;9.07;;;;;;;1.08;93.81;102228.31;5090976;28;20028;-59
2024/01/07 09:58:03;;;;;;;12.23;9.53;;;;;;;1.05;94.25;102231.78;5089571;28;20020;-58
2024/01/07 10:00:29;;;;;;;10.87;8.77;;;;;;;0.99;93.49;102223.06;5089795;28;20024;-59
2024/01/07 10:02:57;;;;;;;11.77;9.30;;;;;;;1.02;93.56;102242.28;5070054;28;20035;-58
2024/01/07 10:05:22;;;;;;;12.13;9.63;;;;;;;1.00;93.59;102240.53;5089352;28;20035;-58
2024/01/07 10:07:48;;;;;;;11.17;9.27;;;;;;;0.97;93.67;102245.78;5090038;28;20032;-58
2024/01/07 10:10:14;;;;;;;13.70;9.47;;;;;;;0.94;93.91;102241.41;5088813;28;20035;-59
2024/01/07 10:12:40;;;;;;;10.87;9.03;;;;;;;0.88;94.40;102233.56;5090076;28;20493;-58
2024/01/07 10:15:06;;;;;;;11.47;9.10;;;;;;;0.96;94.12;102249.28;5089429;28;20103;-58
2024/01/07 10:17:31;;;;;;;10.17;9.10;;;;;;;1.04;94.79;102250.16;5088265;28;20419;-58
2024/01/07 10:19:57;;;;;;;12.37;9.90;;;;;;;1.05;94.53;102250.13;5086837;28;20043;-62
2024/01/07 10:22:23;;;;;;;13.97;8.33;;;;;;;1.02;93.74;102254.50;5089726;28;20103;-59
2024/01/07 10:24:51;;;;;;;12.23;9.80;;;;;;;0.96;93.32;102252.75;5088034;28;20174;-58
2024/01/07 10:27:17;;;;;;;13.43;10.33;;;;;;;0.98;92.73;102260.63;5089912;28;20073;-58
2024/01/07 10:29:42;;;;;;;14.07;9.23;;;;;;;0.94;93.02;102266.72;5087861;28;20425;-58
2024/01/07 10:32:08;;;;;;;14.03;10.30;;;;;;;0.94;93.14;102267.59;5088203;28;20090;-58
2024/01/07 10:34:35;;;;;;;10.60;9.30;;;;;;;0.87;92.91;102271.09;5089496;28;20023;-59
2024/01/07 10:37:02;;;;;;;15.87;11.50;;;;;;;0.83;92.83;102253.66;5088614;28;20032;-58
2024/01/07 10:39:28;;;;;;;11.40;9.80;;;;;;;0.91;93.32;102267.59;5092759;28;20016;-59
2024/01/07 10:41:58;;;;;;;12.03;9.50;;;;;;;0.90;92.32;102260.63;5101448;28;20076;-58
2024/01/07 10:44:28;;;;;;;11.70;9.70;;;;;;;0.90;92.06;102264.13;5092981;28;20474;-60
2024/01/07 10:46:57;;;;;;;;;;;;;;;0.92;92.22;102260.63;5098039;28;20027;-58
2024/01/07 10:49:25;;;;;;;18.80;11.43;;;;;;;0.91;93.23;102262.34;5091682;28;19916;-58
2024/01/07 10:51:56;;;;;;;11.83;9.93;;;;;;;0.99;93.41;102265.00;5092710;28;20519;-59
2024/01/07 10:54:28;;;;;;;11.63;9.53;;;;;;;0.97;93.20;102256.25;5093289;28;20028;-59
2024/01/07 10:56:58;;;;;;;11.80;9.73;;;;;;;0.96;93.00;102258.00;5092187;28;20418;-58
2024/01/07 10:59:25;;;;;;;11.10;9.33;;;;;;;0.96;93.20;102265.00;5091249;28;20020;-58
2024/01/07 11:01:51;;;;;;;13.93;9.53;;;;;;;0.85;93.20;102258.03;5091935;28;20065;-58
2024/01/07 11:04:36;;;;;;;12.03;10.37;;;;;;;0.83;93.40;102254.53;5074818;28;20035;-58
2024/01/07 11:07:11;;;;;;;10.80;9.50;;;;;;;0.91;94.35;102267.59;5093350;28;20421;-59
2024/01/07 11:09:39;;;;;;;13.13;10.00;;;;;;;0.95;93.77;102268.50;5093317;28;20448;-58